Nocatee, Florida
Current Conditions -  °F | °C
As of 9:16 AM on Sunday 23 Nov 2014 (Local Time) from KPGD Reporting Station
Broken Clouds Broken Clouds  
Wind Chill: 79°   Ceiling: 1600
Heat Index: 82°   Visibility: 10mi
Dew Point: 72°   Wind: 12mph
Humidity: 79%   Direction: 150°SSE
Pressure: 30.03"   Gusts: NA
Location:  27.16°N, 81.88°W
Report Text: KPGD 231416Z 15010KT 10SM BKN016 BKN022 26/22 A3003 RMK AO2 T02610222 $
Loading
Personal Weather Stations






























Interactive Weather Map New forecast layout! Learn more

10-Day Weather Forecast

Advertisements
Track Severe Weather on mobile